Westfield River @ Westfield, Ma

Westfield River at Westfield
 Total Drainage Area: 497 sq. miles 
 Drainage Area Controlled by Corps Dams: 214 sq. miles (43%) 
 Warning Flow/Stage: 4,000 cfs / 8.0 feet 
 Flood Flow/Stage: 11,700 cfs / 13.0 feet 
Date Time
(Eastern)
Stage
(ft)
Flow
(cfs)
CSM
(cfs / sq. mi.)
Jan-31 02:45 pm 6.08 1,891 3.8
Jan-31 01:45 pm 6.08 1,891 3.8
Jan-31 12:45 pm 6.09 1,900 3.8
Jan-31 11:45 am 6.10 1,909 3.8
Jan-31 10:45 am 6.11 1,918 3.9
Jan-31 09:45 am 6.13 1,936 3.9
Jan-31 08:45 am 6.14 1,945 3.9
Jan-31 07:45 am 6.15 1,954 3.9
Jan-31 06:45 am 6.17 1,971 4.0
Jan-31 05:45 am 6.19 1,989 4.0
Jan-31 04:45 am 6.21 2,008 4.0
Jan-31 03:45 am 6.22 2,017 4.1
Jan-31 02:45 am 6.20 1,998 4.0
Jan-31 01:45 am 6.20 1,998 4.0
Jan-31 12:45 am 6.21 2,008 4.0
Jan-30 11:45 pm 6.22 2,017 4.1
Jan-30 10:45 pm 6.22 2,017 4.1
Jan-30 09:45 pm 6.22 2,017 4.1
Jan-30 08:45 pm 6.23 2,026 4.1
Jan-30 07:45 pm 6.23 2,026 4.1
Jan-30 06:45 pm 6.24 2,035 4.1
Jan-30 05:45 pm 6.25 2,044 4.1
Jan-30 04:45 pm 6.26 2,053 4.1
Jan-30 03:45 pm 6.26 2,053 4.1
Jan-30 02:45 pm 6.25 2,044 4.1
Report Generated January 31, 2023 03:22 pm